createdAt,value
2019-06-27T00:00:38.845Z,18.8
2019-06-27T00:01:40.638Z,18.8
2019-06-27T00:02:45.279Z,18.7
2019-06-27T00:03:38.069Z,18.7
2019-06-27T00:04:37.082Z,18.7
2019-06-27T00:05:31.414Z,18.7
2019-06-27T00:06:40.914Z,18.7
2019-06-27T00:20:37.920Z,18.7
2019-06-27T00:21:00.747Z,18.7
2019-06-27T00:21:57.966Z,18.6
2019-06-27T00:22:51.673Z,18.6
2019-06-27T00:23:54.913Z,18.6
2019-06-27T00:24:53.664Z,18.6
2019-06-27T00:26:13.122Z,18.4
2019-06-27T00:26:56.663Z,18.4
2019-06-27T00:27:51.002Z,18.4
2019-06-27T00:30:05.891Z,18.4
2019-06-27T00:31:04.706Z,18.8
2019-06-27T00:32:01.459Z,18.8
2019-06-27T00:33:07.610Z,19.0
2019-06-27T00:34:00.808Z,19.0
2019-06-27T00:35:02.774Z,19.0
2019-06-27T00:36:09.990Z,19.1
2019-06-27T00:37:08.694Z,19.1
2019-06-27T00:38:05.030Z,19.0
2019-06-27T00:39:08.015Z,19.0
2019-06-27T00:40:07.509Z,19.0
2019-06-27T00:41:10.111Z,19.0
2019-06-27T00:42:15.524Z,19.0
2019-06-27T00:43:09.447Z,18.9
2019-06-27T00:44:09.503Z,18.9
2019-06-27T00:45:05.277Z,18.9
2019-06-27T00:46:01.494Z,18.8
2019-06-27T00:47:04.124Z,18.8
2019-06-27T00:48:05.966Z,18.8
2019-06-27T00:49:01.684Z,18.8
2019-06-27T00:50:03.704Z,18.8
2019-06-27T00:51:03.197Z,18.6
2019-06-27T00:52:03.925Z,18.6
2019-06-27T00:53:01.520Z,18.6
2019-06-27T00:54:01.417Z,18.4
2019-06-27T00:55:03.048Z,18.4
2019-06-27T00:56:25.021Z,18.3
2019-06-27T00:57:12.594Z,18.3
2019-06-27T00:58:11.518Z,18.3
2019-06-27T00:59:05.659Z,18.4
2019-06-27T01:11:10.669Z,18.8
2019-06-27T01:12:12.564Z,18.8
2019-06-27T01:13:08.285Z,18.8
2019-06-27T01:14:07.821Z,18.8
2019-06-27T01:15:15.507Z,18.8
2019-06-27T01:16:10.871Z,18.9
2019-06-27T01:17:12.930Z,18.9
2019-06-27T01:18:29.476Z,18.9
2019-06-27T01:19:13.272Z,18.8
2019-06-27T01:20:08.658Z,18.8
2019-06-27T01:21:18.772Z,18.8
2019-06-27T01:22:11.289Z,18.7
2019-06-27T01:23:07.021Z,18.7
2019-06-27T01:24:07.635Z,18.6
2019-06-27T01:25:07.656Z,18.6
2019-06-27T01:26:09.432Z,18.6
2019-06-27T01:27:06.007Z,18.6
2019-06-27T01:28:13.338Z,18.6
2019-06-27T01:29:08.609Z,18.6
2019-06-27T01:30:10.789Z,18.6
2019-06-27T01:31:05.612Z,18.6
2019-06-27T01:32:05.805Z,18.7
2019-06-27T01:33:06.556Z,18.7
2019-06-27T01:34:10.434Z,18.6
2019-06-27T01:35:06.825Z,18.6
2019-06-27T01:36:09.811Z,18.6
2019-06-27T01:37:06.999Z,18.4
2019-06-27T01:38:08.521Z,18.4
2019-06-27T01:39:09.097Z,18.2
2019-06-27T01:40:09.694Z,18.2
2019-06-27T01:41:11.896Z,18.2
2019-06-27T01:42:11.104Z,18.1
2019-06-27T01:43:08.610Z,18.1
2019-06-27T01:44:11.265Z,18.1
2019-06-27T01:45:13.412Z,18.1
2019-06-27T01:46:21.693Z,18.1
2019-06-27T01:50:28.470Z,18.0
2019-06-27T01:50:39.568Z,18.0
2019-06-27T01:51:45.303Z,18.0
2019-06-27T01:52:44.027Z,18.0
2019-06-27T01:53:46.353Z,18.0
2019-06-27T01:54:48.566Z,18.0
2019-06-27T01:55:54.418Z,18.0
2019-06-27T01:56:51.449Z,18.0
2019-06-27T01:57:54.173Z,17.9
2019-06-27T01:58:50.090Z,17.9
2019-06-27T01:59:44.420Z,17.9
2019-06-27T02:00:45.307Z,17.9
2019-06-27T02:01:46.422Z,17.9
2019-06-27T02:02:42.749Z,18.0
2019-06-27T02:03:45.348Z,18.0
2019-06-27T02:04:46.941Z,18.0
2019-06-27T02:05:42.157Z,18.0
2019-06-27T02:06:41.705Z,18.0
2019-06-27T02:08:06.803Z,18.0
2019-06-27T02:08:44.979Z,18.0
2019-06-27T02:09:44.248Z,18.0
2019-06-27T02:10:47.028Z,18.0
2019-06-27T02:11:59.881Z,18.0
2019-06-27T02:12:56.560Z,17.9
2019-06-27T02:13:48.913Z,17.9
2019-06-27T02:14:58.186Z,17.8
2019-06-27T02:15:40.808Z,17.8
2019-06-27T02:16:42.225Z,17.8
2019-06-27T02:17:41.918Z,17.8
2019-06-27T02:18:42.831Z,17.8
2019-06-27T02:19:46.691Z,17.7
2019-06-27T02:20:57.698Z,17.7
2019-06-27T02:21:44.309Z,17.7
2019-06-27T02:22:44.331Z,17.7
2019-06-27T02:23:52.378Z,17.7
2019-06-27T02:25:09.579Z,17.7
2019-06-27T02:25:44.337Z,17.7
2019-06-27T02:26:46.616Z,17.7
2019-06-27T02:28:03.607Z,17.7
2019-06-27T02:28:55.267Z,17.7
2019-06-27T02:29:56.562Z,17.7
2019-06-27T02:30:49.501Z,17.8
2019-06-27T02:31:42.598Z,17.8
2019-06-27T02:32:44.702Z,17.7
2019-06-27T02:33:54.046Z,17.7
2019-06-27T02:34:49.159Z,17.7
2019-06-27T02:36:55.237Z,17.7
2019-06-27T02:38:17.207Z,17.6
2019-06-27T02:39:15.424Z,17.6
2019-06-27T02:39:54.186Z,17.6
2019-06-27T02:40:58.556Z,17.6
2019-06-27T02:41:57.891Z,17.6
2019-06-27T02:42:57.436Z,17.6
2019-06-27T02:43:59.607Z,17.6
2019-06-27T02:44:56.919Z,17.6
2019-06-27T02:45:52.315Z,17.6
2019-06-27T02:46:53.370Z,17.6
2019-06-27T02:48:17.361Z,17.5
2019-06-27T02:49:00.260Z,17.5
2019-06-27T02:50:10.059Z,17.5
2019-06-27T02:50:52.468Z,17.5
2019-06-27T02:51:57.220Z,17.5
2019-06-27T02:52:55.489Z,17.6
2019-06-27T02:53:52.587Z,17.6
2019-06-27T02:54:53.855Z,17.6
2019-06-27T02:55:52.015Z,17.6
2019-06-27T02:56:53.593Z,17.6
2019-06-27T02:57:51.876Z,17.6
2019-06-27T02:58:54.621Z,17.6
2019-06-27T02:59:55.542Z,17.6
2019-06-27T03:00:54.527Z,17.6
2019-06-27T03:01:54.286Z,17.6
2019-06-27T03:02:56.794Z,17.6
2019-06-27T03:04:10.196Z,17.6
2019-06-27T03:05:06.809Z,17.6
2019-06-27T03:05:52.993Z,17.8
2019-06-27T03:06:59.017Z,17.8
2019-06-27T03:07:55.206Z,17.8
2019-06-27T03:09:11.057Z,17.8
2019-06-27T03:10:01.242Z,17.8
2019-06-27T03:10:55.685Z,17.8
2019-06-27T03:12:09.502Z,17.8
2019-06-27T03:12:58.494Z,17.8
2019-06-27T03:13:58.106Z,17.8
2019-06-27T03:14:54.641Z,17.8
2019-06-27T03:15:57.899Z,17.7
2019-06-27T03:17:04.529Z,17.7
2019-06-27T03:18:13.520Z,17.7
2019-06-27T03:18:51.299Z,17.8
2019-06-27T03:19:53.848Z,17.8
2019-06-27T03:20:52.557Z,17.7
2019-06-27T03:22:53.474Z,17.7
2019-06-27T03:23:14.426Z,17.7
2019-06-27T03:24:08.459Z,17.7
2019-06-27T03:25:10.002Z,17.7
2019-06-27T03:26:20.902Z,17.7
2019-06-27T03:27:12.538Z,17.7
2019-06-27T03:28:04.228Z,17.7
2019-06-27T03:29:13.227Z,17.9
2019-06-27T03:30:07.569Z,17.9
2019-06-27T03:31:12.127Z,17.9
2019-06-27T03:32:03.221Z,17.9
2019-06-27T03:34:14.675Z,18.0
2019-06-27T03:35:16.501Z,18.0
2019-06-27T03:36:14.924Z,17.9
2019-06-27T03:37:14.862Z,17.9
2019-06-27T03:38:18.757Z,17.9
2019-06-27T03:39:18.464Z,18.0
2019-06-27T03:40:14.746Z,18.0
2019-06-27T03:41:14.716Z,18.1
2019-06-27T03:42:16.923Z,18.1
2019-06-27T03:43:17.950Z,18.1
2019-06-27T03:44:32.191Z,18.1
2019-06-27T03:45:29.275Z,18.1
2019-06-27T03:46:19.894Z,18.2
2019-06-27T03:47:15.009Z,18.2
2019-06-27T03:48:17.412Z,18.2
2019-06-27T03:49:15.554Z,18.2
2019-06-27T03:50:14.969Z,18.2
2019-06-27T03:51:15.659Z,18.1
2019-06-27T03:52:14.761Z,18.1
2019-06-27T03:53:15.719Z,18.1
2019-06-27T03:54:15.314Z,18.0
2019-06-27T03:55:14.731Z,18.0
2019-06-27T03:56:15.648Z,18.1
2019-06-27T03:57:14.699Z,18.1
2019-06-27T03:58:15.078Z,18.1
2019-06-27T03:59:17.396Z,18.0
2019-06-27T04:00:14.730Z,18.0
2019-06-27T04:01:15.433Z,18.0
2019-06-27T04:02:16.036Z,18.0
2019-06-27T04:03:18.793Z,18.0
2019-06-27T04:04:18.456Z,18.0
2019-06-27T04:05:15.353Z,18.0
2019-06-27T04:06:18.070Z,18.0
2019-06-27T04:07:16.384Z,18.0
2019-06-27T04:08:21.211Z,18.0
2019-06-27T04:09:19.579Z,18.0
2019-06-27T04:10:19.447Z,18.0
2019-06-27T04:11:17.439Z,18.0
2019-06-27T04:12:16.043Z,18.0
2019-06-27T04:13:15.174Z,18.0
2019-06-27T04:14:18.870Z,18.0
2019-06-27T04:15:19.202Z,18.0
2019-06-27T04:16:14.586Z,18.0
2019-06-27T04:17:16.456Z,18.1
2019-06-27T04:18:15.926Z,18.1
2019-06-27T04:19:18.375Z,18.2
2019-06-27T04:20:18.216Z,18.2
2019-06-27T04:21:17.868Z,18.2
2019-06-27T04:22:17.492Z,18.2
2019-06-27T04:23:19.436Z,18.2
2019-06-27T04:24:14.871Z,18.2
2019-06-27T04:25:15.099Z,18.2
2019-06-27T04:26:15.554Z,18.2
2019-06-27T04:27:15.661Z,18.4
2019-06-27T04:28:15.571Z,18.4
2019-06-27T04:29:31.374Z,18.6
2019-06-27T04:30:16.035Z,18.6
2019-06-27T04:31:17.600Z,18.6
2019-06-27T04:32:24.348Z,18.5
2019-06-27T04:33:21.952Z,18.5
2019-06-27T04:34:20.397Z,18.5
2019-06-27T04:35:24.416Z,18.8
2019-06-27T04:36:15.198Z,18.8
2019-06-27T04:37:15.097Z,18.8
2019-06-27T04:38:15.702Z,18.8
2019-06-27T04:39:16.086Z,18.8
2019-06-27T04:40:15.122Z,19.2
2019-06-27T04:41:16.752Z,19.2
2019-06-27T04:42:15.960Z,19.2
2019-06-27T04:43:14.906Z,19.2
2019-06-27T04:44:15.074Z,19.2
2019-06-27T04:45:15.120Z,19.2
2019-06-27T04:46:15.018Z,19.2
2019-06-27T04:47:15.006Z,19.5
2019-06-27T04:49:27.989Z,19.5
2019-06-27T04:50:27.943Z,19.7
2019-06-27T04:51:27.232Z,19.7
2019-06-27T04:52:27.236Z,19.7
2019-06-27T04:53:27.375Z,19.7
2019-06-27T04:55:30.878Z,19.7
2019-06-27T04:56:04.124Z,19.7
2019-06-27T04:57:44.675Z,19.7
2019-06-27T04:58:29.628Z,19.7
2019-06-27T04:59:52.671Z,20.4
2019-06-27T05:00:13.853Z,20.8
2019-06-27T05:01:22.952Z,20.8
2019-06-27T05:02:21.549Z,20.8
2019-06-27T05:03:26.744Z,21.1
2019-06-27T05:04:19.699Z,21.1
2019-06-27T05:05:33.862Z,21.3
2019-06-27T05:06:22.691Z,21.3
2019-06-27T05:08:14.017Z,21.3
2019-06-27T05:17:48.554Z,21.3
2019-06-27T05:19:36.086Z,21.3
2019-06-27T05:20:03.091Z,21.3
2019-06-27T05:21:24.452Z,22.0
2019-06-27T05:21:58.368Z,22.0
2019-06-27T05:22:51.366Z,22.4
2019-06-27T05:23:52.063Z,22.4
2019-06-27T05:26:15.618Z,22.4
2019-06-27T05:27:30.994Z,22.4
2019-06-27T05:29:38.237Z,22.4
2019-06-27T05:30:58.870Z,22.4
2019-06-27T05:32:09.929Z,22.4
2019-06-27T05:33:30.469Z,22.4
2019-06-27T05:34:07.511Z,22.4
2019-06-27T05:35:29.967Z,22.3
2019-06-27T05:37:45.633Z,22.5
2019-06-27T05:39:08.665Z,22.5
2019-06-27T05:39:56.077Z,22.5
2019-06-27T05:41:43.657Z,22.6
2019-06-27T05:42:10.580Z,22.6
2019-06-27T05:43:56.206Z,22.6
2019-06-27T05:44:09.372Z,22.6
2019-06-27T05:45:31.534Z,22.7
2019-06-27T05:46:19.744Z,22.7
2019-06-27T05:48:50.304Z,22.7
2019-06-27T05:50:03.796Z,22.7
2019-06-27T05:50:26.629Z,22.7
2019-06-27T05:54:29.849Z,22.8
2019-06-27T05:54:40.291Z,22.9
2019-06-27T05:55:42.181Z,23.0
2019-06-27T05:56:48.970Z,23.0
2019-06-27T05:58:43.544Z,23.0
2019-06-27T05:59:12.291Z,23.0
2019-06-27T06:00:07.474Z,22.9
2019-06-27T06:00:55.744Z,22.9
2019-06-27T06:02:51.427Z,22.9
2019-06-27T06:03:42.870Z,22.9
2019-06-27T06:04:01.427Z,22.9
2019-06-27T06:05:14.891Z,22.9
2019-06-27T06:06:33.359Z,22.9
2019-06-27T06:07:51.988Z,22.9
2019-06-27T06:08:25.385Z,22.9
2019-06-27T06:09:50.666Z,23.0
2019-06-27T06:10:37.755Z,23.0
2019-06-27T06:11:37.333Z,23.2
2019-06-27T06:12:44.381Z,23.2
2019-06-27T06:16:10.129Z,23.2
2019-06-27T06:16:59.843Z,23.2
2019-06-27T06:18:18.859Z,23.2
2019-06-27T06:19:01.506Z,23.2
2019-06-27T06:20:09.994Z,23.7
2019-06-27T06:21:12.445Z,23.7
2019-06-27T06:22:01.008Z,23.7
2019-06-27T06:23:09.882Z,23.7
2019-06-27T06:24:10.327Z,23.7
2019-06-27T06:27:41.182Z,23.7
2019-06-27T06:28:36.522Z,23.7
2019-06-27T06:29:43.769Z,24.0
2019-06-27T06:30:43.791Z,24.0
2019-06-27T06:31:38.188Z,24.0
2019-06-27T06:32:31.302Z,24.1
2019-06-27T06:33:31.023Z,24.1
2019-06-27T06:34:31.678Z,24.3
2019-06-27T06:35:27.855Z,24.3
2019-06-27T06:36:38.491Z,24.3
2019-06-27T06:37:28.493Z,24.4
2019-06-27T06:38:32.853Z,24.4
2019-06-27T06:39:30.789Z,24.4
2019-06-27T06:40:34.819Z,24.4
2019-06-27T06:41:35.014Z,24.4
2019-06-27T06:42:42.611Z,24.3
2019-06-27T06:43:24.468Z,24.3
2019-06-27T06:44:23.371Z,24.4
2019-06-27T06:45:26.441Z,24.4
2019-06-27T06:46:44.571Z,24.4
2019-06-27T06:47:26.203Z,24.2
2019-06-27T06:48:20.626Z,24.2
2019-06-27T06:49:39.991Z,24.3
2019-06-27T06:50:24.200Z,24.3
2019-06-27T06:51:32.505Z,24.3
2019-06-27T06:52:25.444Z,24.6
2019-06-27T06:53:19.891Z,24.6
2019-06-27T06:54:38.585Z,24.6
2019-06-27T06:55:42.671Z,24.6
2019-06-27T06:56:28.358Z,24.6
2019-06-27T06:57:30.082Z,24.5
2019-06-27T06:58:25.961Z,24.5
2019-06-27T07:01:01.027Z,24.8
2019-06-27T07:01:33.988Z,24.8
2019-06-27T07:02:33.633Z,25.2
2019-06-27T07:03:32.875Z,25.2
2019-06-27T07:04:33.750Z,24.9
2019-06-27T07:05:44.225Z,24.9
2019-06-27T07:06:32.985Z,24.9
2019-06-27T07:07:36.229Z,24.7
2019-06-27T07:08:34.232Z,24.7
2019-06-27T07:09:36.134Z,24.8
2019-06-27T07:10:33.596Z,24.8
2019-06-27T07:11:37.350Z,24.8
2019-06-27T07:12:35.646Z,24.8
2019-06-27T07:13:39.285Z,24.8
2019-06-27T07:14:49.595Z,25.0
2019-06-27T07:15:31.593Z,25.0
2019-06-27T07:16:34.642Z,25.0
2019-06-27T07:17:49.461Z,25.0
2019-06-27T07:18:35.848Z,25.0
2019-06-27T07:19:32.022Z,25.1
2019-06-27T07:20:37.040Z,25.1
2019-06-27T07:21:37.049Z,25.1
2019-06-27T07:22:34.903Z,25.2
2019-06-27T07:23:33.842Z,25.2
2019-06-27T07:24:33.931Z,25.2
2019-06-27T07:25:38.230Z,25.1
2019-06-27T07:26:45.896Z,25.1
2019-06-27T07:27:37.271Z,25.1
2019-06-27T07:28:36.070Z,25.1
2019-06-27T07:29:55.062Z,25.1
2019-06-27T07:30:34.289Z,25.2
2019-06-27T07:32:45.383Z,25.2
2019-06-27T07:34:32.057Z,25.2
2019-06-27T07:36:25.871Z,25.2
2019-06-27T07:37:35.798Z,25.2
2019-06-27T07:39:05.282Z,25.6
2019-06-27T07:39:38.138Z,25.6
2019-06-27T07:41:14.009Z,25.7
2019-06-27T07:42:04.389Z,25.7
2019-06-27T07:42:26.582Z,26.0
2019-06-27T07:44:01.885Z,26.0
2019-06-27T07:45:07.813Z,26.0
2019-06-27T07:45:28.335Z,25.9
2019-06-27T07:46:27.326Z,25.9
2019-06-27T07:47:22.416Z,25.9
2019-06-27T07:48:22.327Z,26.2
2019-06-27T07:49:28.833Z,26.2
2019-06-27T07:50:24.981Z,26.4
2019-06-27T07:52:08.937Z,26.4
2019-06-27T07:52:41.193Z,26.4
2019-06-27T07:53:22.429Z,26.3
2019-06-27T07:54:23.710Z,26.3
2019-06-27T07:55:22.832Z,26.4
2019-06-27T07:56:24.702Z,26.4
2019-06-27T07:57:22.687Z,26.4
2019-06-27T07:58:22.854Z,26.2
2019-06-27T07:59:23.924Z,26.2
2019-06-27T08:00:22.622Z,26.2
2019-06-27T08:01:33.710Z,26.2
2019-06-27T08:02:22.781Z,26.2
2019-06-27T08:03:22.722Z,26.4
2019-06-27T08:04:22.734Z,26.4
2019-06-27T08:05:22.684Z,26.3
2019-06-27T08:06:22.778Z,26.3
2019-06-27T08:07:22.399Z,26.3
2019-06-27T08:19:25.137Z,26.6
2019-06-27T08:20:25.499Z,26.6
2019-06-27T08:21:25.021Z,26.8
2019-06-27T08:22:25.203Z,26.8
2019-06-27T08:23:40.171Z,27.3
2019-06-27T08:24:25.108Z,27.3
2019-06-27T08:25:25.502Z,27.3
2019-06-27T08:26:25.116Z,27.9
2019-06-27T08:27:25.483Z,27.9
2019-06-27T08:28:25.257Z,27.4
2019-06-27T08:29:26.618Z,27.4
2019-06-27T08:30:25.266Z,27.4
2019-06-27T08:31:25.669Z,28.0
2019-06-27T08:32:25.385Z,28.0
2019-06-27T08:33:25.141Z,27.5
2019-06-27T08:34:26.079Z,27.5
2019-06-27T08:35:25.134Z,27.5
2019-06-27T08:36:25.895Z,27.8
2019-06-27T08:37:28.486Z,27.8
2019-06-27T08:38:26.647Z,27.9
2019-06-27T08:52:28.014Z,28.1
2019-06-27T08:52:56.616Z,28.1
2019-06-27T08:53:47.258Z,27.8
2019-06-27T08:54:44.296Z,27.8
2019-06-27T08:55:43.141Z,27.8
2019-06-27T09:00:33.214Z,27.8
2019-06-27T09:02:44.433Z,27.8
2019-06-27T09:04:51.469Z,27.8
2019-06-27T09:06:00.561Z,27.8
2019-06-27T09:06:54.436Z,27.8
2019-06-27T09:08:14.515Z,28.4
2019-06-27T09:09:28.939Z,28.4
2019-06-27T09:11:06.879Z,28.4
2019-06-27T09:12:05.202Z,28.4
2019-06-27T09:13:16.812Z,28.6
2019-06-27T09:14:59.554Z,28.6
2019-06-27T09:16:11.479Z,28.6
2019-06-27T09:17:44.302Z,28.6
2019-06-27T09:19:04.672Z,28.6
2019-06-27T09:19:53.496Z,28.6
2019-06-27T09:21:04.696Z,28.6
2019-06-27T09:21:56.511Z,29.1
2019-06-27T09:22:55.792Z,29.3
2019-06-27T09:23:57.439Z,29.3
2019-06-27T09:25:47.319Z,28.5
2019-06-27T09:27:31.197Z,28.5
2019-06-27T09:29:09.780Z,28.5
2019-06-27T09:30:58.140Z,28.5
2019-06-27T09:32:39.724Z,28.5
2019-06-27T09:33:42.366Z,28.5
2019-06-27T09:34:21.355Z,28.5
2019-06-27T09:35:26.022Z,29.3
2019-06-27T09:36:10.581Z,29.3
2019-06-27T09:37:31.241Z,29.3
2019-06-27T09:39:10.131Z,29.3
2019-06-27T09:40:21.860Z,29.3
2019-06-27T09:41:10.355Z,29.4
2019-06-27T09:42:09.813Z,29.4
2019-06-27T09:43:28.205Z,28.7
2019-06-27T09:44:10.941Z,28.7
2019-06-27T09:47:27.632Z,28.4
2019-06-27T09:48:26.763Z,28.4
2019-06-27T09:50:05.436Z,28.4
2019-06-27T09:51:30.737Z,28.4
2019-06-27T09:53:32.157Z,28.4
2019-06-27T09:55:36.307Z,28.4
2019-06-27T09:57:53.761Z,28.4
2019-06-27T09:59:19.982Z,28.4
2019-06-27T10:00:55.220Z,28.4
2019-06-27T10:02:10.377Z,28.4
2019-06-27T10:04:02.881Z,28.4
2019-06-27T10:05:21.484Z,28.4
2019-06-27T10:06:25.923Z,28.4
2019-06-27T10:07:29.687Z,29.0
2019-06-27T10:09:13.492Z,29.2
2019-06-27T10:10:18.227Z,29.2
2019-06-27T10:11:00.573Z,29.3
2019-06-27T10:12:03.615Z,29.3
2019-06-27T10:12:59.092Z,29.4
2019-06-27T10:14:22.313Z,29.4
2019-06-27T10:14:57.050Z,29.4
2019-06-27T10:18:28.251Z,29.2
2019-06-27T10:19:27.687Z,29.2
2019-06-27T10:21:01.708Z,29.2
2019-06-27T10:21:54.822Z,29.2
2019-06-27T10:24:19.014Z,29.1
2019-06-27T10:26:07.742Z,29.1
2019-06-27T10:26:20.877Z,29.1
2019-06-27T10:29:14.966Z,29.3
2019-06-27T10:29:45.632Z,29.3
2019-06-27T10:31:37.824Z,29.4
2019-06-27T10:33:41.044Z,29.4
2019-06-27T10:35:05.090Z,29.4
2019-06-27T10:36:06.192Z,29.4
2019-06-27T10:36:49.830Z,28.9
2019-06-27T10:37:57.864Z,28.9
2019-06-27T10:38:56.630Z,29.2
2019-06-27T10:39:58.899Z,29.2
2019-06-27T10:40:33.705Z,29.3
2019-06-27T10:41:46.275Z,29.3
2019-06-27T10:43:51.222Z,29.3
2019-06-27T10:45:18.343Z,29.3
2019-06-27T10:45:46.859Z,29.3
2019-06-27T10:47:00.157Z,29.0
2019-06-27T10:47:45.872Z,29.0
2019-06-27T10:48:54.839Z,29.1
2019-06-27T10:50:29.455Z,29.1
2019-06-27T10:50:57.204Z,29.1
2019-06-27T10:52:36.407Z,29.0
2019-06-27T10:53:10.446Z,29.0
2019-06-27T10:54:04.971Z,28.7
2019-06-27T10:54:50.904Z,28.7
2019-06-27T10:56:22.355Z,28.8
2019-06-27T10:57:54.039Z,28.8
2019-06-27T10:58:10.219Z,28.8
2019-06-27T10:59:22.355Z,28.8
2019-06-27T11:01:31.317Z,29.2
2019-06-27T11:03:14.031Z,29.2
2019-06-27T11:03:27.065Z,28.9
2019-06-27T11:05:43.306Z,28.9
2019-06-27T11:06:31.708Z,28.9
2019-06-27T11:07:26.323Z,28.8
2019-06-27T11:08:48.116Z,28.8
2019-06-27T11:09:53.146Z,28.8
2019-06-27T11:10:32.264Z,28.8
2019-06-27T11:16:47.391Z,28.5
2019-06-27T11:17:14.302Z,28.5
2019-06-27T11:18:32.946Z,29.0
2019-06-27T11:19:05.187Z,28.8
2019-06-27T11:20:24.087Z,28.8
2019-06-27T11:21:07.289Z,28.8
2019-06-27T11:22:49.424Z,29.4
2019-06-27T11:23:23.062Z,29.4
2019-06-27T11:24:03.981Z,29.1
2019-06-27T11:25:20.233Z,29.1
2019-06-27T11:26:09.250Z,29.1
2019-06-27T11:27:05.070Z,29.6
2019-06-27T11:29:15.739Z,29.6
2019-06-27T11:29:59.979Z,29.6
2019-06-27T11:30:54.665Z,29.5
2019-06-27T11:32:03.475Z,29.0
2019-06-27T11:33:03.536Z,29.0
2019-06-27T11:34:39.883Z,29.0
2019-06-27T11:35:48.079Z,29.0
2019-06-27T11:36:38.153Z,28.9
2019-06-27T11:37:42.528Z,28.6
2019-06-27T11:38:37.161Z,28.6
2019-06-27T11:39:46.359Z,28.6
2019-06-27T11:40:24.075Z,28.6
2019-06-27T11:41:23.431Z,28.6
2019-06-27T11:42:29.785Z,28.6
2019-06-27T11:43:20.627Z,28.6
2019-06-27T11:44:21.908Z,29.0
2019-06-27T11:45:12.629Z,29.0
2019-06-27T11:46:47.456Z,29.0
2019-06-27T11:47:27.868Z,29.2
2019-06-27T11:49:15.763Z,29.2
2019-06-27T11:49:56.452Z,29.2
2019-06-27T11:50:34.315Z,29.1
2019-06-27T11:51:45.998Z,29.1
2019-06-27T11:52:36.315Z,29.1
2019-06-27T11:53:39.406Z,29.1
2019-06-27T11:54:39.865Z,28.8
2019-06-27T11:55:39.901Z,28.8
2019-06-27T11:56:42.657Z,28.8
2019-06-27T11:57:39.042Z,29.0
2019-06-27T11:58:49.827Z,29.0
2019-06-27T11:59:41.982Z,29.0
2019-06-27T12:00:33.923Z,29.0
2019-06-27T12:01:35.871Z,29.0
2019-06-27T12:02:33.117Z,28.4
2019-06-27T12:03:30.574Z,28.4
2019-06-27T12:04:34.992Z,28.5
2019-06-27T12:05:44.293Z,28.5
2019-06-27T12:06:35.744Z,28.5
2019-06-27T12:07:29.160Z,28.7
2019-06-27T12:08:30.949Z,28.7
2019-06-27T12:09:34.978Z,28.7
2019-06-27T12:10:34.174Z,28.7
2019-06-27T12:11:35.890Z,28.7
2019-06-27T12:12:37.501Z,28.8
2019-06-27T12:13:32.167Z,28.8
2019-06-27T12:14:35.339Z,28.8
2019-06-27T12:15:39.837Z,28.8
2019-06-27T12:16:36.168Z,28.8
2019-06-27T12:17:46.988Z,29.1
2019-06-27T12:18:38.919Z,29.1
2019-06-27T12:19:35.749Z,29.1
2019-06-27T12:20:35.761Z,29.1
2019-06-27T12:21:38.922Z,29.1
2019-06-27T12:22:47.033Z,29.2
2019-06-27T12:23:38.237Z,29.2
2019-06-27T12:24:56.260Z,29.2
2019-06-27T12:25:40.037Z,28.9
2019-06-27T12:26:51.927Z,28.9
2019-06-27T12:27:42.107Z,28.7
2019-06-27T12:28:48.507Z,28.7
2019-06-27T12:29:39.937Z,28.7
2019-06-27T12:30:37.588Z,28.5
2019-06-27T12:31:35.529Z,28.5
2019-06-27T12:32:51.200Z,28.8
2019-06-27T12:33:28.540Z,28.8
2019-06-27T12:34:28.145Z,28.8
2019-06-27T12:35:31.085Z,29.3
2019-06-27T12:36:29.729Z,29.3
2019-06-27T12:37:28.755Z,29.4
2019-06-27T12:38:28.127Z,29.4
2019-06-27T12:39:40.120Z,29.4
2019-06-27T12:40:30.982Z,29.3
2019-06-27T12:41:29.918Z,29.3
2019-06-27T12:42:44.734Z,29.5
2019-06-27T12:43:31.991Z,29.5
2019-06-27T12:44:29.891Z,29.5
2019-06-27T12:45:31.789Z,29.1
2019-06-27T12:46:30.204Z,29.1
2019-06-27T12:47:31.335Z,29.0
2019-06-27T12:48:28.815Z,29.0
2019-06-27T12:49:44.440Z,29.0
2019-06-27T12:50:30.822Z,29.0
2019-06-27T12:51:38.328Z,29.0
2019-06-27T12:52:30.566Z,29.3
2019-06-27T12:53:29.100Z,29.3
2019-06-27T12:54:28.674Z,29.3
2019-06-27T12:55:52.282Z,29.2
2019-06-27T12:56:29.288Z,29.2
2019-06-27T12:57:30.918Z,29.2
2019-06-27T12:58:30.402Z,28.8
2019-06-27T12:59:28.864Z,28.8
2019-06-27T13:00:35.838Z,28.8
2019-06-27T13:01:28.482Z,28.8
2019-06-27T13:02:28.889Z,28.8
2019-06-27T13:03:28.626Z,29.0
2019-06-27T13:04:29.397Z,29.0
2019-06-27T13:05:28.456Z,28.9
2019-06-27T13:06:28.920Z,28.9
2019-06-27T13:07:28.653Z,28.9
2019-06-27T13:09:23.002Z,29.0
2019-06-27T13:09:59.167Z,29.0
2019-06-27T13:10:42.058Z,29.4
2019-06-27T13:13:10.741Z,29.4
2019-06-27T13:17:19.155Z,29.4
2019-06-27T13:17:46.083Z,29.4
2019-06-27T13:21:10.683Z,29.4
2019-06-27T13:22:55.985Z,29.4
2019-06-27T13:23:48.014Z,29.4
2019-06-27T13:24:13.619Z,29.2
2019-06-27T13:25:10.087Z,29.2
2019-06-27T13:27:24.383Z,29.2
2019-06-27T13:28:28.950Z,29.4
2019-06-27T13:31:52.973Z,29.4
2019-06-27T13:33:28.878Z,29.4
2019-06-27T13:34:40.013Z,29.4
2019-06-27T13:34:55.169Z,29.4
2019-06-27T13:36:07.584Z,29.1
2019-06-27T13:37:04.535Z,29.1
2019-06-27T13:39:13.016Z,29.2
2019-06-27T13:40:04.487Z,29.2
2019-06-27T13:41:13.209Z,29.2
2019-06-27T13:42:07.354Z,29.2
2019-06-27T13:43:44.062Z,29.2
2019-06-27T13:45:31.716Z,29.6
2019-06-27T13:46:16.480Z,29.6
2019-06-27T13:47:31.818Z,29.4
2019-06-27T13:48:11.027Z,29.4
2019-06-27T13:50:41.040Z,29.0
2019-06-27T13:51:21.147Z,29.4
2019-06-27T13:52:47.777Z,29.4
2019-06-27T13:53:35.510Z,29.4
2019-06-27T13:54:21.309Z,29.5
2019-06-27T13:55:41.499Z,29.5
2019-06-27T13:56:35.104Z,29.1
2019-06-27T13:57:19.337Z,29.1
2019-06-27T13:58:29.124Z,29.1
2019-06-27T13:59:34.909Z,29.3
2019-06-27T14:00:26.759Z,29.3
2019-06-27T14:01:28.619Z,29.6
2019-06-27T14:02:32.492Z,29.6
2019-06-27T14:03:10.947Z,29.6
2019-06-27T14:04:10.884Z,29.5
2019-06-27T14:05:19.444Z,29.5
2019-06-27T14:06:50.994Z,29.7
2019-06-27T14:07:45.473Z,29.7
2019-06-27T14:08:44.236Z,29.7
2019-06-27T14:09:50.640Z,29.5
2019-06-27T14:10:42.581Z,29.5
2019-06-27T14:12:30.662Z,29.5
2019-06-27T14:13:45.380Z,29.5
2019-06-27T14:14:59.335Z,29.5
2019-06-27T14:15:30.044Z,29.5
2019-06-27T14:17:40.505Z,29.2
2019-06-27T14:18:20.595Z,29.2
2019-06-27T14:19:43.507Z,29.5
2019-06-27T14:20:28.892Z,29.5
2019-06-27T14:21:25.233Z,29.5
2019-06-27T14:23:22.197Z,29.5
2019-06-27T14:23:58.783Z,29.5
2019-06-27T14:25:07.424Z,29.1
2019-06-27T14:26:03.602Z,29.1
2019-06-27T14:27:07.749Z,29.2
2019-06-27T14:27:54.028Z,29.2
2019-06-27T14:28:52.339Z,29.2
2019-06-27T14:30:11.385Z,29.0
2019-06-27T14:31:07.133Z,29.0
2019-06-27T14:32:07.026Z,29.1
2019-06-27T14:33:03.558Z,29.1
2019-06-27T14:34:03.900Z,29.1
2019-06-27T14:34:49.417Z,29.1
2019-06-27T14:36:11.472Z,29.1
2019-06-27T14:36:56.608Z,29.1
2019-06-27T14:37:53.294Z,29.2
2019-06-27T14:38:46.082Z,29.2
2019-06-27T14:39:46.727Z,29.2
2019-06-27T14:40:50.643Z,29.2
2019-06-27T14:41:50.173Z,29.2
2019-06-27T14:42:47.806Z,29.6
2019-06-27T14:43:48.204Z,29.6
2019-06-27T14:50:38.060Z,29.8
2019-06-27T14:51:25.753Z,29.8
2019-06-27T14:52:24.457Z,29.8
2019-06-27T14:53:28.039Z,30.2
2019-06-27T14:54:51.254Z,30.2
2019-06-27T14:55:59.485Z,30.2
2019-06-27T14:56:56.671Z,30.2
2019-06-27T14:58:11.211Z,29.8
2019-06-27T14:59:28.610Z,29.8
2019-06-27T15:00:32.292Z,29.8
2019-06-27T15:01:58.120Z,29.8
2019-06-27T15:03:07.224Z,29.8
2019-06-27T15:04:04.452Z,29.8
2019-06-27T15:05:28.028Z,29.5
2019-06-27T15:06:37.178Z,29.5
2019-06-27T15:07:32.531Z,29.5
2019-06-27T15:08:39.373Z,29.7
2019-06-27T15:09:09.004Z,29.7
2019-06-27T15:11:37.743Z,29.4
2019-06-27T15:13:08.982Z,29.4
2019-06-27T15:18:33.863Z,29.4
2019-06-27T15:20:23.621Z,29.4
2019-06-27T15:22:12.151Z,29.4
2019-06-27T15:23:40.214Z,29.4
2019-06-27T15:25:55.914Z,29.4
2019-06-27T15:27:46.219Z,29.4
2019-06-27T15:28:55.355Z,29.4
2019-06-27T15:30:51.147Z,29.4
2019-06-27T15:32:20.975Z,29.4
2019-06-27T15:33:24.791Z,29.4
2019-06-27T15:34:06.179Z,29.4
2019-06-27T15:34:54.089Z,29.6
2019-06-27T15:36:53.264Z,29.4
2019-06-27T15:38:18.388Z,29.4
2019-06-27T15:39:50.879Z,29.4
2019-06-27T15:41:16.879Z,29.4
2019-06-27T15:43:11.609Z,29.4
2019-06-27T15:45:08.850Z,29.4
2019-06-27T15:47:18.931Z,29.4
2019-06-27T15:49:12.708Z,29.4
2019-06-27T15:51:04.920Z,29.4
2019-06-27T15:52:55.711Z,29.4
2019-06-27T15:57:29.436Z,29.4
2019-06-27T15:58:27.176Z,29.4
2019-06-27T15:59:42.338Z,29.8
2019-06-27T16:01:35.445Z,29.8
2019-06-27T16:02:28.206Z,29.8
2019-06-27T16:03:03.338Z,29.7
2019-06-27T16:03:55.266Z,29.4
2019-06-27T16:04:53.729Z,29.4
2019-06-27T16:07:10.345Z,29.5
2019-06-27T16:08:07.466Z,29.5
2019-06-27T16:09:08.084Z,29.4
2019-06-27T16:10:08.030Z,29.4
2019-06-27T16:11:13.046Z,29.3